Aérodrome :
LOGIN :

S'inscrire | Disclaimer

   EN    FR    IT 

 










Légende :    VFR   VFR Marginal   IFR   IFR Intensif   IFR Très Intensif
Visi : 
Plafond : 
>= 8 km
>= 3000ft
5 à 8 km
1000 à 3000 ft
1500m à 5 km
500 à 1000 ft
800 à 1500m
200 à 500 ft
< 800m
< 200 ft
Symboles :   Orages  Brouillard  Fortes neiges  Fortes précipitations  Vent > 20 kt
SIGMETs :   Divers  Orages  Givrage  Turbulence  Onde Orograph.  Cendres Volcan.






- Altitude de l'aérodrome : 408 ft
- Code IATA : FKB


EDSB - Karlsruhe Baden Baden

DERNIER METAR :
  • 291150Z 05015KT CAVOK 21/05 Q1024

METARs EXPIRÉS :
  • 291120Z 06017KT 030V090 CAVOK 22/04 Q1024
  • 291050Z 05017KT CAVOK 21/05 Q1025
  • 291020Z 04015KT 360V080 CAVOK 21/05 Q1025
  • 290950Z 03015KT CAVOK 21/06 Q1025
  • 290920Z 04013KT 360V080 CAVOK 20/06 Q1025

TAF TAF EDSB
Valide du 29 à 12h jusqu'au 30 à 12h UTC


291100Z 2912/3012 03014KT CAVOK
BECMG 2918/2920 03007KT
BECMG 3006/3008 03013KT
TEMPO 3010/3012 03015G25KT



MET'MAP, la Météo Aéronautique d'un coup d'oeil ! - Copyright ORBIFLY Décembre 2007 - Disclaimer

ORBIFLY MET'MAP TEAM :

Programmation & Développement : Alexandra Zaïnal
Sur une idée originale de : Baudouin d'Aumeries
Assistance à la programmation : Marc-Olivier Méhu
Soutien technique & logistique : Manuel Goepfert

Contact : metmap@orbifly.com




SOURCES & CREDITS :

   NOAA